BBC356 LIRF-VGHS
Flight info
| Callsign | BBC356 |
|---|---|
| Flight time | N/A |
| Altitude | 19000 |
| Route | OKUNO L5 ATRUP/N0489F360 DCT PES DCT ETRIN DCT XOLTA/N0486F370 DCT RAMAP DCT NISVA Q13 UDROS UM859 KARDE UN644 ROLIN N644 LAGAS DCT DISKA M737 VERCA M747 SUBUT T923 ERLEV M11 RODAR A909 TUNEK DCT TUGTA A909 BIBIM/N0487F390 A909 LEMOD N644 DI M875 JHANG DCT ENRIR DCT PATNI DCT SULOM M890 CHG W35 ONOGI DCT SP DCT GUVGU DCT BRL J98 TATAK DCT KEVOD J71 PPT A201 RAJ G463 IDLOX |
| Aircraft | B789/H-SDE1E2E3FGHIJ2J3J4J5M1RWXY/LB1D1 |
Departure
| Time | N/A |
|---|---|
| Airport | Rome–Fiumicino Leonardo da Vinci International Airport (LIRF) |
Arrival
| Time | 2026-05-06 02:02 |
|---|---|
| Airport | Hazrat Shahjalal International Airport (VGHS) |
| Time | Latitude | Longitude | Altitude | Speed | Heading |
|---|---|---|---|---|---|
| 2026-05-06 01:59 | 23.94110 | 90.31963 | 2056 ft | 175 kts | 145° |
| 2026-05-06 01:59 | 23.93127 | 90.32747 | 1830 ft | 174 kts | 144° |
| 2026-05-06 01:59 | 23.92171 | 90.33518 | 1632 ft | 168 kts | 144° |
| 2026-05-06 02:00 | 23.91233 | 90.34259 | 1402 ft | 164 kts | 145° |
| 2026-05-06 02:00 | 23.90308 | 90.34920 | 1189 ft | 159 kts | 148° |
| 2026-05-06 02:00 | 23.89352 | 90.35529 | 994 ft | 160 kts | 147° |
| 2026-05-06 02:00 | 23.88447 | 90.36240 | 798 ft | 158 kts | 137° |
| 2026-05-06 02:01 | 23.87670 | 90.37067 | 599 ft | 155 kts | 136° |
| 2026-05-06 02:01 | 23.86824 | 90.37773 | 388 ft | 151 kts | 148° |
| 2026-05-06 02:01 | 23.85999 | 90.38446 | 226 ft | 147 kts | 143° |
| 2026-05-06 02:01 | 23.85188 | 90.39098 | 43 ft | 138 kts | 145° |
| 2026-05-06 02:02 | 23.84572 | 90.39593 | 43 ft | 75 kts | 144° |
| 2026-05-06 02:02 | 23.84235 | 90.39860 | 41 ft | 53 kts | 144° |
| 2026-05-06 02:02 | 23.84040 | 90.40109 | 42 ft | 34 kts | 113° |
| 2026-05-06 02:02 | 23.84002 | 90.40349 | 42 ft | 32 kts | 77° |
| 2026-05-06 02:03 | 23.84098 | 90.40533 | 41 ft | 23 kts | 54° |
| 2026-05-06 02:03 | 23.84176 | 90.40571 | 41 ft | 7 kts | 335° |
| 2026-05-06 02:03 | 23.84218 | 90.40541 | 41 ft | 9 kts | 324° |
| 2026-05-06 02:03 | 23.84277 | 90.40493 | 41 ft | 11 kts | 324° |
| 2026-05-06 02:04 | 23.84345 | 90.40439 | 41 ft | 13 kts | 324° |
| 2026-05-06 02:04 | 23.84420 | 90.40380 | 41 ft | 14 kts | 324° |
| 2026-05-06 02:04 | 23.84506 | 90.40311 | 41 ft | 16 kts | 324° |
| 2026-05-06 02:04 | 23.84600 | 90.40237 | 40 ft | 16 kts | 329° |
| 2026-05-06 02:05 | 23.84637 | 90.40237 | 41 ft | 3 kts | 37° |
| 2026-05-06 02:05 | 23.84672 | 90.40286 | 41 ft | 13 kts | 54° |
| 2026-05-06 02:05 | 23.84694 | 90.40355 | 41 ft | 9 kts | 75° |
| 2026-05-06 02:05 | 23.84719 | 90.40404 | 40 ft | 4 kts | 54° |
| 2026-05-06 02:06 | 23.84730 | 90.40421 | 41 ft | 2 kts | 54° |
| 2026-05-06 02:06 | 23.84733 | 90.40425 | 41 ft | 0 kts | 54° |